Terminal Aerodrome Forecast
Issued by NWS

Home | Current Version | Previous Version | Text Only | Print | Product List | Glossary On
Versions: 1 2 3 4 5 6 7 8 9 10 11 12 13 14
000
FTUS44 KEPZ 251120
TAFTCS
TAF
KTCS 251120Z 2512/2612 21007KT P6SM SCT050 BKN100
     FM252000 20007KT P6SM VCTS SCT050CB BKN100 BKN200
     FM260500 28006KT P6SM FEW050 SCT100 BKN200=

USA.gov is the U.S. government's official web portal to all federal, state and local government web resources and services.